createdAt,value
2022-08-24T00:00:11.082Z,101204.91
2022-08-24T00:05:35.870Z,101201.80
2022-08-24T00:11:03.631Z,101206.08
2022-08-24T00:16:29.623Z,101201.49
2022-08-24T00:21:52.736Z,101198.71
2022-08-24T00:27:16.872Z,101193.63
2022-08-24T00:32:40.675Z,101191.02
2022-08-24T00:38:04.888Z,101201.19
2022-08-24T00:43:31.137Z,101192.46
2022-08-24T00:48:58.825Z,101197.73
2022-08-24T00:54:25.276Z,101196.49
2022-08-24T00:59:55.746Z,101188.93
2022-08-24T01:05:22.172Z,101192.92
2022-08-24T01:10:51.718Z,101207.97
2022-08-24T01:21:58.063Z,101206.88
2022-08-24T01:27:27.990Z,101201.70
2022-08-24T01:32:49.603Z,101201.12
2022-08-24T01:38:16.190Z,101206.84
2022-08-24T01:43:38.632Z,101201.99
2022-08-24T01:49:03.024Z,101200.95
2022-08-24T01:54:27.754Z,101210.08
2022-08-24T01:59:50.726Z,101209.03
2022-08-24T02:05:13.821Z,101211.28
2022-08-24T02:10:36.444Z,101217.73
2022-08-24T02:16:01.455Z,101208.72
2022-08-24T02:21:25.005Z,101212.91
2022-08-24T02:26:48.077Z,101213.61
2022-08-24T02:32:12.941Z,101214.62
2022-08-24T02:37:35.833Z,101207.48
2022-08-24T02:43:00.266Z,101205.31
2022-08-24T02:48:24.156Z,101203.33
2022-08-24T02:53:46.923Z,101216.21
2022-08-24T02:59:12.820Z,101229.40
2022-08-24T03:04:37.678Z,101222.98
2022-08-24T03:10:00.314Z,101221.70
2022-08-24T03:15:25.420Z,101231.56
2022-08-24T03:20:48.949Z,101228.27
2022-08-24T03:26:11.438Z,101236.41
2022-08-24T03:31:40.377Z,101237.58
2022-08-24T03:37:03.031Z,101246.09
2022-08-24T03:42:25.474Z,101256.38
2022-08-24T03:47:48.241Z,101263.06
2022-08-24T03:53:11.723Z,101265.78
2022-08-24T03:58:34.074Z,101267.37
2022-08-24T04:03:59.479Z,101280.92
2022-08-24T04:09:24.133Z,101273.47
2022-08-24T04:14:47.024Z,101279.61
2022-08-24T04:20:09.440Z,101288.58
2022-08-24T04:25:32.653Z,101281.83
2022-08-24T04:30:57.329Z,101285.28
2022-08-24T04:36:21.398Z,101280.69
2022-08-24T04:41:44.673Z,101278.98
2022-08-24T04:47:09.375Z,101289.34
2022-08-24T04:52:32.219Z,101303.91
2022-08-24T04:57:54.885Z,101306.62
2022-08-24T05:03:17.939Z,101309.48
2022-08-24T05:08:44.443Z,101302.88
2022-08-24T05:14:07.920Z,101301.27
2022-08-24T05:19:32.833Z,101314.06
2022-08-24T05:24:56.989Z,101326.59
2022-08-24T05:30:20.531Z,101323.17
2022-08-24T05:35:45.833Z,101326.39
2022-08-24T05:41:11.799Z,101325.75
2022-08-24T05:46:37.191Z,101318.02
2022-08-24T05:52:00.414Z,101323.46
2022-08-24T05:57:24.306Z,101329.81
2022-08-24T06:02:46.746Z,101326.23
2022-08-24T06:08:09.367Z,101334.56
2022-08-24T06:13:31.894Z,101330.60
2022-08-24T06:18:55.552Z,101343.80
2022-08-24T06:24:19.058Z,101342.16
2022-08-24T06:29:41.385Z,101335.32
2022-08-24T06:35:04.253Z,101331.84
2022-08-24T06:40:27.093Z,101342.86
2022-08-24T06:45:50.241Z,101335.09
2022-08-24T06:51:21.216Z,101345.51
2022-08-24T06:56:46.754Z,101344.39
2022-08-24T07:02:11.259Z,101345.75
2022-08-24T07:07:33.559Z,101349.55
2022-08-24T07:12:56.558Z,101348.57
2022-08-24T07:18:20.637Z,101347.59
2022-08-24T07:23:45.057Z,101361.44
2022-08-24T07:29:45.796Z,101361.58
2022-08-24T07:34:39.967Z,101359.09
2022-08-24T07:40:02.663Z,101364.95
2022-08-24T07:45:27.250Z,101363.13
2022-08-24T07:50:49.528Z,101366.77
2022-08-24T07:56:13.063Z,101368.16
2022-08-24T08:01:35.888Z,101376.71
2022-08-24T08:07:02.164Z,101370.04
2022-08-24T08:12:27.794Z,101382.86
2022-08-24T08:17:56.095Z,101381.80
2022-08-24T08:23:32.289Z,101385.16
2022-08-24T08:28:54.822Z,101387.02
2022-08-24T08:34:18.299Z,101376.89
2022-08-24T08:39:41.189Z,101387.45
2022-08-24T08:45:20.240Z,101391.22
2022-08-24T08:51:06.739Z,101393.05
2022-08-24T08:57:04.934Z,101393.66
2022-08-24T09:02:45.590Z,101400.91
2022-08-24T09:08:40.395Z,101402.45
2022-08-24T09:14:56.160Z,101393.22
2022-08-24T09:20:42.047Z,101398.52
2022-08-24T09:26:27.606Z,101401.56
2022-08-24T09:38:08.618Z,101399.27
2022-08-24T09:43:41.572Z,101395.96
2022-08-24T09:49:14.658Z,101389.55
2022-08-24T09:54:57.637Z,101389.98
2022-08-24T10:00:31.099Z,101394.94
2022-08-24T10:06:22.351Z,101401.11
2022-08-24T10:12:11.424Z,101402.87
2022-08-24T10:17:51.301Z,101386.67
2022-08-24T10:23:50.561Z,101397.62
2022-08-24T10:29:51.695Z,101407.48
2022-08-24T10:35:46.794Z,101405.64
2022-08-24T10:41:43.177Z,101402.33
2022-08-24T10:47:19.537Z,101395.34
2022-08-24T10:52:52.706Z,101391.77
2022-08-24T10:58:49.877Z,101386.97
2022-08-24T11:04:19.501Z,101380.14
2022-08-24T11:09:57.982Z,101380.50
2022-08-24T11:15:33.090Z,101388.98
2022-08-24T11:21:03.023Z,101385.26
2022-08-24T11:26:34.603Z,101378.97
2022-08-24T11:32:03.155Z,101376.92
2022-08-24T11:37:31.399Z,101375.05
2022-08-24T11:43:15.563Z,101373.29
2022-08-24T11:48:57.750Z,101365.59
2022-08-24T11:54:51.353Z,101364.51
2022-08-24T12:00:34.787Z,101369.04
2022-08-24T12:06:35.268Z,101366.83
2022-08-24T12:12:14.442Z,101365.39
2022-08-24T12:18:03.566Z,101354.17
2022-08-24T12:23:39.614Z,101361.33
2022-08-24T12:29:27.184Z,101359.20
2022-08-24T12:35:10.471Z,101359.37
2022-08-24T12:40:53.612Z,101356.78
2022-08-24T12:46:19.327Z,101345.98
2022-08-24T12:51:59.156Z,101344.22
2022-08-24T12:58:30.997Z,101346.23
2022-08-24T13:03:46.883Z,101346.38
2022-08-24T13:09:14.674Z,101345.87
2022-08-24T13:14:40.020Z,101347.30
2022-08-24T13:26:01.729Z,101340.02
2022-08-24T13:31:44.584Z,101347.16
2022-08-24T13:37:34.603Z,101339.86
2022-08-24T13:43:16.328Z,101341.30
2022-08-24T13:48:53.224Z,101337.49
2022-08-24T14:01:04.232Z,101347.98
2022-08-24T14:06:34.241Z,101337.52
2022-08-24T14:12:06.582Z,101340.06
2022-08-24T14:18:12.660Z,101334.81
2022-08-24T14:23:56.617Z,101341.43
2022-08-24T14:29:41.496Z,101330.70
2022-08-24T14:35:11.575Z,101336.77
2022-08-24T14:41:03.636Z,101326.48
2022-08-24T14:46:40.434Z,101337.02
2022-08-24T14:52:26.177Z,101332.02
2022-08-24T14:58:25.482Z,101322.14
2022-08-24T15:04:00.435Z,101313.59
2022-08-24T15:09:39.070Z,101320.20
2022-08-24T15:15:16.249Z,101311.53
2022-08-24T15:21:03.973Z,101307.88
2022-08-24T15:26:37.015Z,101309.28
2022-08-24T15:32:11.964Z,101302.47
2022-08-24T15:37:47.862Z,101312.27
2022-08-24T15:43:12.826Z,101313.20
2022-08-24T15:48:38.136Z,101319.47
2022-08-24T15:54:01.066Z,101306.09
2022-08-24T15:59:42.448Z,101311.28
2022-08-24T16:05:27.939Z,101312.36
2022-08-24T16:11:05.863Z,101310.70
2022-08-24T16:16:41.381Z,101316.16
2022-08-24T16:22:16.353Z,101313.83
2022-08-24T16:27:58.766Z,101307.23
2022-08-24T16:33:44.279Z,101312.48
2022-08-24T16:39:06.442Z,101316.91
2022-08-24T16:44:29.442Z,101322.55
2022-08-24T16:49:51.893Z,101327.43
2022-08-24T16:55:15.216Z,101327.42
2022-08-24T17:00:38.374Z,101327.14
2022-08-24T17:06:02.798Z,101348.00
2022-08-24T17:11:28.123Z,101351.27
2022-08-24T17:16:53.326Z,101360.86
2022-08-24T17:22:17.890Z,101364.06
2022-08-24T17:27:44.651Z,101370.06
2022-08-24T17:33:07.056Z,101366.73
2022-08-24T17:38:29.443Z,101382.17
2022-08-24T17:43:52.308Z,101391.39
2022-08-24T17:49:16.918Z,101379.59
2022-08-24T17:54:40.426Z,101389.57
2022-08-24T18:00:02.845Z,101390.91
2022-08-24T18:05:26.249Z,101390.81
2022-08-24T18:10:50.108Z,101399.05
2022-08-24T18:16:13.083Z,101404.59
2022-08-24T18:21:35.983Z,101408.95
2022-08-24T18:26:59.748Z,101420.09
2022-08-24T18:32:22.192Z,101429.94
2022-08-24T18:37:44.404Z,101416.09
2022-08-24T18:43:08.871Z,101422.22
2022-08-24T18:48:31.478Z,101421.97
2022-08-24T18:53:53.961Z,101432.66
2022-08-24T18:59:20.706Z,101423.45
2022-08-24T19:04:47.438Z,101433.96
2022-08-24T19:10:12.129Z,101433.72
2022-08-24T19:15:39.890Z,101438.21
2022-08-24T19:21:03.926Z,101442.84
2022-08-24T19:26:26.862Z,101439.81
2022-08-24T19:31:50.949Z,101451.17
2022-08-24T19:37:13.464Z,101454.13
2022-08-24T19:42:36.609Z,101445.45
2022-08-24T19:47:59.896Z,101457.13
2022-08-24T19:53:26.940Z,101471.35
2022-08-24T19:59:08.574Z,101457.67
2022-08-24T20:04:31.403Z,101454.08
2022-08-24T20:09:55.001Z,101458.41
2022-08-24T20:15:18.517Z,101464.73
2022-08-24T20:20:43.429Z,101464.95
2022-08-24T20:26:06.260Z,101459.76
2022-08-24T20:31:29.884Z,101466.60
2022-08-24T20:37:00.495Z,101469.32
2022-08-24T20:42:24.289Z,101470.50
2022-08-24T20:47:48.441Z,101483.47
2022-08-24T20:53:12.375Z,101482.42
2022-08-24T20:58:36.491Z,101481.41
2022-08-24T21:04:04.296Z,101491.92
2022-08-24T21:09:24.947Z,101492.27
2022-08-24T21:14:47.916Z,101493.39
2022-08-24T21:20:12.855Z,101496.94
2022-08-24T21:25:35.549Z,101492.66
2022-08-24T21:31:00.483Z,101499.28
2022-08-24T21:36:23.855Z,101500.64
2022-08-24T21:41:47.180Z,101517.15
2022-08-24T21:47:09.554Z,101502.42
2022-08-24T21:52:31.997Z,101512.33
2022-08-24T21:57:54.914Z,101513.16
2022-08-24T22:03:19.195Z,101517.43
2022-08-24T22:08:43.014Z,101502.59
2022-08-24T22:14:08.126Z,101505.70
2022-08-24T22:19:32.086Z,101497.18
2022-08-24T22:24:55.328Z,101501.79
2022-08-24T22:30:19.273Z,101504.85
2022-08-24T22:35:45.243Z,101515.05
2022-08-24T22:41:14.624Z,101534.03
2022-08-24T22:46:38.281Z,101526.03
2022-08-24T22:52:00.926Z,101545.70
2022-08-24T22:57:23.163Z,101510.72
2022-08-24T23:02:45.449Z,101517.20
2022-08-24T23:08:07.912Z,101501.03
2022-08-24T23:13:30.160Z,101491.38
2022-08-24T23:19:10.483Z,101464.03
2022-08-24T23:24:34.492Z,101464.88
2022-08-24T23:29:57.838Z,101444.70
2022-08-24T23:35:21.613Z,101417.88
2022-08-24T23:40:45.539Z,101402.52
2022-08-24T23:46:08.339Z,101383.06
2022-08-24T23:51:34.339Z,101362.42
2022-08-24T23:57:00.876Z,101357.27
